Olga, WA (98279)

6:04 PM PST on February 22, 2017 (GMT -0800)
Blakely island 49 | | Change Station

Elev -3 ft 48.58 °N, 122.82 °W | Updated 9 seconds ago

Clear
Clear
40.6 °F
Feels Like 41 °F
N
0.0
Wind Variable Wind from NNW
Gusts 0.0 mph

Today
High -- | Low -- °F
--% Chance of Precip.
Yesterday
High -- | Low -- °F
Precip. -- in
Pressure 30.19 in
Visibility 9.0 miles
Clouds Clear
Windchill 41 °F
Dew Point 37 °F
Humidity 87%
Rainfall 0.00 in
Snow Depth Not available.
7:05 AM 5:44 PM
Waning Crescent, 13% visible
METAR KORS 230155Z AUTO 32003KT 9SM CLR 03/00 A3019 RMK AO2
Pressure 30.19 in
Visibility 9.0 miles
Clouds Clear
Windchill 41 °F
Dew Point 37 °F
Humidity 87%
Rainfall 0.00 in
Snow Depth Not available.
7:05 AM 5:44 PM
Waning Crescent, 13% visible
METAR KORS 230155Z AUTO 32003KT 9SM CLR 03/00 A3019 RMK AO2

Get Your Daily Forecast Email!

Thanks for signing up!

Be on the lookout for a verification email in your inbox.

You'll start receiving the daily forecast at 8 AM.

×

10-Day Weather Forecast

Almanac

Astronomy

Feb. 22, 2017 Rise Set
Actual Time
Civil Twilight
Nautical Twilight
Astronomical Twilight
Moon
Length of Visible Light
Length of Day
Tomorrow will be .
, % of the Moon is Illuminated

Today's Extremes

State Highs State Lows

Community

WunderPhotos

Upload Photos

1,962,540 photos uploaded!

WunderBlog® & News

Nearby

Air Quality

  Air Quality AQ Index Pollutant
Not available.

Snow Depth

Station Depth Elevation

Earthquake Activity

City Distance Mag. Time & Date
Minimum magnitude displayed is 2.5.

Coastal Water Temperatures

Place Temperature

Stations

Nearby Weather Stations

Station Location Temp. Windchill Dew Point Humidity Wind Precip. Elev Updated Type
                   

Watches & Warnings

There are currently no watches in effect.